Mensagens recentes

1
Aviação Comercial / Re: A350: tudo relacionado com este novo modelo!
« Última mensagem por ngouveia em Hoje às 18:17:32 »
Hoje o primeiro A350-900ULR (MSN 216) efectuou o seu primeiro voo. Deverá ser entregue à Singapore em Outubro, após uma campanha de testes relativamente curta.

https://twitter.com/Airbus/status/988412341376167938

https://twitter.com/Frenchpainter/status/988351473821077504
2
Movimentos (Fotos/Vídeos/Registos) / Re: Printscreens do Flightradar 24
« Última mensagem por Snip em Hoje às 17:39:01 »
Ao longos dos anos com cancelamentos e sem saber ler METAR's fui aprendendo as limitações observando os padrões, e pelo que vejo, hoje, e nos próximos dias o vento sopra do quadrante norte, o que implica que o vento está na "diagonal" com a pista daí todas estas perturbações. Sendo eu natural de Machico noto que o tempo está "de trás" como se costuma dizer pelo frio mas especialmente pelo vento que leva a todas estas perturbações.

Tinha uma conhecida que vinha no TP1671 que esteve em hold entre a Madeira e o Porto Santo, e tentou aterrar uma vez, abortou a aterragem mesmo no final e seguiu logo para Lisboa. A indicação da TAP foi que amanha ao final do dia teriam uma solução, uma vez que a previsão para amanhã era igual à de hoje e como tal não fazia sentido agendar nova viagem para o dia de amanhã
3
Movimentos (Fotos/Vídeos/Registos) / Re: Printscreens do Flightradar 24
« Última mensagem por CS-TTK em Hoje às 17:18:21 »
Sim, era referente as 15:00.. o das 15:30 não está muito diferente. Mas desde as 15:00 nenhum avião aterrou. Os dados anteriores as 15:00 parecem me bem piores e houveram algumas aterragens ou pelo menos tentativas.. desde as 15:00 não passam do hold
4
Movimentos (Fotos/Vídeos/Registos) / Re: Printscreens do Flightradar 24
« Última mensagem por Franmed em Hoje às 16:59:53 »
Mais um dia complicado em FNC.

METAR as 15:00
Citação
LPMA 231500Z 36018KT 320V020 9999 SCT015 18/13 Q1017

Eu, na qualidade de leigo na materia, ja vi METAR's [aparentemente] bem piores que este com aterragens a decorrer em FNC. Hoje com este METAR nao aterrou nenhum aviao nem sequer tentativas. Qual o factor que esta a fazer a diferenca hoje, a direccao do vento?
Eu ja olhei para uma cartas de aeronavegacao (ou um nome semelhante) e nao consegui fazer uma interpretacao que fizesse sentido na minha cabeca  :-\

Mas esse METAR refere-se a um momento do dia´.

METAR/SPECI from LPMA, Aeroporto Da Madeira (Portugal).
SA   23/04/2018 15:30->   
METAR LPMA 231530Z 35019KT 310V020 9999 SCT015 18/12 Q1017=
SA   23/04/2018 15:00->   
METAR LPMA 231500Z 36018KT 320V020 9999 SCT015 18/13 Q1017=
SA   23/04/2018 14:30->   
METAR LPMA 231430Z 35022G32KT 9999 SCT015 19/12 Q1017=
SA   23/04/2018 14:00->   
METAR LPMA 231400Z 35020G30KT 300V010 9999 SCT015 19/12 Q1017=
SA   23/04/2018 13:30->   
METAR LPMA 231330Z 35022G34KT 9999 SCT015 18/12 Q1017=
SA   23/04/2018 13:00->   
METAR LPMA 231300Z 35023G36KT 9999 SCT015 SCT030 18/12 Q1017=
SA   23/04/2018 12:30->   
METAR LPMA 231230Z 36020G40KT 320V040 9000 DZ BKN015 SCT030
           17/13 Q1018=
SA   23/04/2018 12:00->   
METAR LPMA 231200Z 35019G33KT 320V030 9999 SCT015 SCT030
           18/12 Q1018=
SA   23/04/2018 11:30->   
METAR LPMA 231130Z 35017G30KT 310V030 9999 SCT015 SCT030
           18/12 Q1018=
SA   23/04/2018 11:00->   
METAR LPMA 231100Z 35016G27KT 300V040 9000 SCT015 SCT030
           18/12 Q1018=
5
Movimentos (Fotos/Vídeos/Registos) / Re: Printscreens do Flightradar 24
« Última mensagem por CS-TTK em Hoje às 16:56:33 »
Mais um dia complicado em FNC.

METAR as 15:00
Citação
LPMA 231500Z 36018KT 320V020 9999 SCT015 18/13 Q1017

Eu, na qualidade de leigo na materia, ja vi METAR's [aparentemente] bem piores que este com aterragens a decorrer em FNC. Hoje com este METAR nao aterrou nenhum aviao nem sequer tentativas. Qual o factor que esta a fazer a diferenca hoje, a direccao do vento?
Eu ja olhei para uma cartas de aeronavegacao (ou um nome semelhante) e nao consegui fazer uma interpretacao que fizesse sentido na minha cabeca  :-\
6
Mais um vídeo do saudoso comandante Rodrigo David para descontrair um pouco nesta tarde complicada de segunda feira...

7
TAP / Re: TAP Portugal- Novidades Frota
« Última mensagem por World Traveller em Hoje às 15:49:37 »
Olá Teixeira,

Não, de forma alguma. Com este tempo de antecedência é impossível saber isso, até porque se houver algum atraso com as certificações, o avião pode nem voar a 18/05.

Cumprimentos.
8
Movimentos (Fotos/Vídeos/Registos) / Re: Printscreens do Flightradar 24
« Última mensagem por Rex em Hoje às 15:30:27 »
Deve ser um UAV da empresa UAVision de Torres Vedras, não sabia que emitem mode-s

9
TAP / Re: Voos TAP WB na Europa
« Última mensagem por CS-TTK em Hoje às 15:08:18 »
ja esta a se dirigir a pista rumo a VIE ;)

Segundo o FR24 so vai a PRG dia 25, no site da TAP TP1300 de dia 25 esta previsto em B763 por isso penso que o FR24 acertou...
10
TAP / Re: TAP Portugal- Novidades Frota
« Última mensagem por Teixeira em Hoje às 15:02:28 »
O CS-TVA (A320 Neo) tem o primeiro voo previsto para o dia 18/05/2018.

Cumprimentos


Já se sabe para onde?

Abraço

Tópicos populares

Últimos tópicos ativos

Goste da nossa página no Facebook

Procurar

Total 54+48=102 ms, db 0 ms, php 102 ms